sensor_id;sensor_type;location;lat;lon;timestamp;pressure;altitude;pressure_sealevel;temperature;humidity
11525;BME280;5819;49.648;8.330;2023-03-01T00:01:19;101563.03;;;-0.44;82.21
11525;BME280;5819;49.648;8.330;2023-03-01T00:03:49;101565.44;;;-0.51;82.35
11525;BME280;5819;49.648;8.330;2023-03-01T00:06:18;101566.56;;;-0.38;82.92
11525;BME280;5819;49.648;8.330;2023-03-01T00:08:46;101568.31;;;-0.37;81.62
11525;BME280;5819;49.648;8.330;2023-03-01T00:11:16;101563.00;;;-0.46;81.86
11525;BME280;5819;49.648;8.330;2023-03-01T00:13:45;101562.84;;;-0.52;83.31
11525;BME280;5819;49.648;8.330;2023-03-01T00:16:15;101556.78;;;-0.57;82.65
11525;BME280;5819;49.648;8.330;2023-03-01T00:18:44;101552.63;;;-0.52;82.74
11525;BME280;5819;49.648;8.330;2023-03-01T00:21:13;101558.03;;;-0.38;82.96
11525;BME280;5819;49.648;8.330;2023-03-01T00:23:41;101558.75;;;-0.45;82.15
11525;BME280;5819;49.648;8.330;2023-03-01T00:26:12;101561.31;;;-0.44;82.33
11525;BME280;5819;49.648;8.330;2023-03-01T00:28:41;101554.50;;;-0.45;83.23
11525;BME280;5819;49.648;8.330;2023-03-01T00:31:12;101563.84;;;-0.45;82.67
11525;BME280;5819;49.648;8.330;2023-03-01T00:33:41;101563.72;;;-0.11;81.73
11525;BME280;5819;49.648;8.330;2023-03-01T00:36:10;101565.66;;;-0.41;82.93
11525;BME280;5819;49.648;8.330;2023-03-01T00:38:41;101555.25;;;-0.49;83.52
11525;BME280;5819;49.648;8.330;2023-03-01T00:41:11;101550.16;;;-0.49;83.39
11525;BME280;5819;49.648;8.330;2023-03-01T00:43:39;101558.59;;;-0.53;82.99
11525;BME280;5819;49.648;8.330;2023-03-01T00:46:09;101555.97;;;-0.55;83.50
11525;BME280;5819;49.648;8.330;2023-03-01T00:48:37;101554.34;;;-0.51;83.94
11525;BME280;5819;49.648;8.330;2023-03-01T00:51:06;101564.47;;;-0.56;83.34
11525;BME280;5819;49.648;8.330;2023-03-01T00:53:35;101562.84;;;-0.52;83.99
11525;BME280;5819;49.648;8.330;2023-03-01T00:56:06;101568.66;;;-0.59;83.63
11525;BME280;5819;49.648;8.330;2023-03-01T00:58:35;101559.09;;;-0.68;84.05
11525;BME280;5819;49.648;8.330;2023-03-01T01:01:07;101565.50;;;-0.48;83.25
11525;BME280;5819;49.648;8.330;2023-03-01T01:03:45;101559.00;;;-0.72;84.16
11525;BME280;5819;49.648;8.330;2023-03-01T01:06:18;101551.34;;;-0.72;84.45
11525;BME280;5819;49.648;8.330;2023-03-01T01:08:47;101552.44;;;-0.61;84.42
11525;BME280;5819;49.648;8.330;2023-03-01T01:11:16;101547.06;;;-0.72;84.23
11525;BME280;5819;49.648;8.330;2023-03-01T01:13:46;101542.66;;;-0.79;85.09
11525;BME280;5819;49.648;8.330;2023-03-01T01:16:14;101544.81;;;-0.96;85.22
11525;BME280;5819;49.648;8.330;2023-03-01T01:18:43;101530.00;;;-0.74;85.49
11525;BME280;5819;49.648;8.330;2023-03-01T01:21:13;101522.16;;;-0.82;85.27
11525;BME280;5819;49.648;8.330;2023-03-01T01:23:43;101526.19;;;-0.91;85.82
11525;BME280;5819;49.648;8.330;2023-03-01T01:26:13;101522.81;;;-0.90;85.58
11525;BME280;5819;49.648;8.330;2023-03-01T01:28:42;101518.41;;;-0.98;85.56
11525;BME280;5819;49.648;8.330;2023-03-01T01:31:10;101512.53;;;-0.93;85.37
11525;BME280;5819;49.648;8.330;2023-03-01T01:33:38;101513.25;;;-0.99;86.22
11525;BME280;5819;49.648;8.330;2023-03-01T01:36:07;101509.19;;;-0.92;85.57
11525;BME280;5819;49.648;8.330;2023-03-01T01:38:36;101510.75;;;-0.96;86.40
11525;BME280;5819;49.648;8.330;2023-03-01T01:41:06;101502.34;;;-0.93;86.23
11525;BME280;5819;49.648;8.330;2023-03-01T01:43:35;101502.16;;;-1.01;86.14
11525;BME280;5819;49.648;8.330;2023-03-01T01:46:07;101491.84;;;-1.06;86.99
11525;BME280;5819;49.648;8.330;2023-03-01T01:48:42;101491.19;;;-0.97;86.53
11525;BME280;5819;49.648;8.330;2023-03-01T01:51:13;101493.63;;;-1.02;86.40
11525;BME280;5819;49.648;8.330;2023-03-01T01:53:43;101491.91;;;-1.03;86.73
11525;BME280;5819;49.648;8.330;2023-03-01T01:56:15;101484.19;;;-1.04;86.98
11525;BME280;5819;49.648;8.330;2023-03-01T01:58:45;101478.59;;;-0.88;86.82
11525;BME280;5819;49.648;8.330;2023-03-01T02:01:16;101476.97;;;-0.86;85.89
11525;BME280;5819;49.648;8.330;2023-03-01T02:03:45;101478.59;;;-0.89;86.07
11525;BME280;5819;49.648;8.330;2023-03-01T02:06:19;101483.03;;;-0.81;85.94
11525;BME280;5819;49.648;8.330;2023-03-01T02:08:50;101481.16;;;-0.89;86.41
11525;BME280;5819;49.648;8.330;2023-03-01T02:11:20;101480.22;;;-0.93;86.23
11525;BME280;5819;49.648;8.330;2023-03-01T02:13:49;101472.81;;;-0.81;86.50
11525;BME280;5819;49.648;8.330;2023-03-01T02:16:19;101477.03;;;-0.83;85.67
11525;BME280;5819;49.648;8.330;2023-03-01T02:18:47;101466.59;;;-0.93;85.60
11525;BME280;5819;49.648;8.330;2023-03-01T02:21:30;101467.41;;;-0.95;86.72
11525;BME280;5819;49.648;8.330;2023-03-01T02:24:07;101464.97;;;-0.90;86.47
11525;BME280;5819;49.648;8.330;2023-03-01T02:26:42;101468.97;;;-1.01;86.30
11525;BME280;5819;49.648;8.330;2023-03-01T02:29:14;101468.22;;;-0.97;86.66
11525;BME280;5819;49.648;8.330;2023-03-01T02:31:42;101466.25;;;-1.07;86.85
11525;BME280;5819;49.648;8.330;2023-03-01T02:34:13;101467.84;;;-1.12;87.36
11525;BME280;5819;49.648;8.330;2023-03-01T02:36:45;101460.63;;;-0.94;87.22
11525;BME280;5819;49.648;8.330;2023-03-01T02:39:17;101456.38;;;-0.92;87.09
11525;BME280;5819;49.648;8.330;2023-03-01T02:41:51;101462.34;;;-0.91;87.62
11525;BME280;5819;49.648;8.330;2023-03-01T02:44:24;101450.41;;;-0.94;88.07
11525;BME280;5819;49.648;8.330;2023-03-01T02:46:54;101449.69;;;-0.88;88.10
11525;BME280;5819;49.648;8.330;2023-03-01T02:49:25;101446.13;;;-0.95;88.34
11525;BME280;5819;49.648;8.330;2023-03-01T02:52:22;101441.97;;;-0.90;87.68
11525;BME280;5819;49.648;8.330;2023-03-01T02:54:56;101434.84;;;-0.64;86.37
11525;BME280;5819;49.648;8.330;2023-03-01T02:57:27;101439.03;;;-0.69;86.37
11525;BME280;5819;49.648;8.330;2023-03-01T03:00:02;101427.97;;;-0.68;87.28
11525;BME280;5819;49.648;8.330;2023-03-01T03:02:34;101426.91;;;-0.78;86.82
11525;BME280;5819;49.648;8.330;2023-03-01T03:05:16;101424.50;;;-0.70;87.40
11525;BME280;5819;49.648;8.330;2023-03-01T03:07:46;101421.72;;;-0.39;85.97
11525;BME280;5819;49.648;8.330;2023-03-01T03:10:17;101416.19;;;-0.60;85.67
11525;BME280;5819;49.648;8.330;2023-03-01T03:12:49;101419.59;;;-0.61;86.33
11525;BME280;5819;49.648;8.330;2023-03-01T03:15:20;101412.19;;;-0.48;85.42
11525;BME280;5819;49.648;8.330;2023-03-01T03:17:49;101412.72;;;-0.64;86.38
11525;BME280;5819;49.648;8.330;2023-03-01T03:20:19;101407.94;;;-0.47;86.06
11525;BME280;5819;49.648;8.330;2023-03-01T03:22:48;101403.59;;;-0.53;85.43
11525;BME280;5819;49.648;8.330;2023-03-01T03:25:17;101403.41;;;-0.62;86.63
11525;BME280;5819;49.648;8.330;2023-03-01T03:27:47;101403.94;;;-0.78;86.42
11525;BME280;5819;49.648;8.330;2023-03-01T03:30:17;101403.88;;;-0.81;87.61
11525;BME280;5819;49.648;8.330;2023-03-01T03:32:47;101399.53;;;-0.85;87.31
11525;BME280;5819;49.648;8.330;2023-03-01T03:35:20;101392.22;;;-0.68;87.08
11525;BME280;5819;49.648;8.330;2023-03-01T03:37:48;101388.75;;;-0.70;87.53
11525;BME280;5819;49.648;8.330;2023-03-01T03:40:34;101392.22;;;-0.68;86.82
11525;BME280;5819;49.648;8.330;2023-03-01T03:43:04;101383.22;;;-0.48;86.86
11525;BME280;5819;49.648;8.330;2023-03-01T03:45:32;101384.31;;;-0.79;87.86
11525;BME280;5819;49.648;8.330;2023-03-01T03:48:04;101379.94;;;-0.86;88.79
11525;BME280;5819;49.648;8.330;2023-03-01T03:50:33;101374.94;;;-0.80;88.74
11525;BME280;5819;49.648;8.330;2023-03-01T03:53:02;101375.88;;;-0.76;88.35
11525;BME280;5819;49.648;8.330;2023-03-01T03:55:31;101375.41;;;-0.57;87.96
11525;BME280;5819;49.648;8.330;2023-03-01T03:58:01;101373.53;;;-0.66;89.25
11525;BME280;5819;49.648;8.330;2023-03-01T04:00:34;101370.19;;;-0.62;87.89
11525;BME280;5819;49.648;8.330;2023-03-01T04:03:03;101373.75;;;-0.54;87.75
11525;BME280;5819;49.648;8.330;2023-03-01T04:05:32;101374.63;;;-0.53;87.21
11525;BME280;5819;49.648;8.330;2023-03-01T04:07:59;101374.25;;;-0.73;88.53
11525;BME280;5819;49.648;8.330;2023-03-01T04:10:35;101377.56;;;-0.75;87.84
11525;BME280;5819;49.648;8.330;2023-03-01T04:13:04;101378.34;;;-0.81;87.92
11525;BME280;5819;49.648;8.330;2023-03-01T04:15:33;101371.03;;;-0.63;88.43
11525;BME280;5819;49.648;8.330;2023-03-01T04:18:03;101381.19;;;-0.66;87.70
11525;BME280;5819;49.648;8.330;2023-03-01T04:20:33;101374.72;;;-0.49;87.87
11525;BME280;5819;49.648;8.330;2023-03-01T04:23:03;101376.06;;;-0.66;87.79
11525;BME280;5819;49.648;8.330;2023-03-01T04:25:38;101377.75;;;-0.66;87.73
11525;BME280;5819;49.648;8.330;2023-03-01T04:28:06;101381.72;;;-0.82;89.18
11525;BME280;5819;49.648;8.330;2023-03-01T04:30:35;101382.09;;;-0.62;88.21
11525;BME280;5819;49.648;8.330;2023-03-01T04:33:06;101382.78;;;-0.72;88.53
11525;BME280;5819;49.648;8.330;2023-03-01T04:35:35;101381.03;;;-0.72;88.13
11525;BME280;5819;49.648;8.330;2023-03-01T04:38:03;101380.13;;;-0.77;89.52
11525;BME280;5819;49.648;8.330;2023-03-01T04:40:31;101379.41;;;-0.70;89.13
11525;BME280;5819;49.648;8.330;2023-03-01T04:42:59;101377.28;;;-0.49;88.76
11525;BME280;5819;49.648;8.330;2023-03-01T04:45:27;101383.13;;;-0.54;88.51
11525;BME280;5819;49.648;8.330;2023-03-01T04:47:56;101376.88;;;-0.68;88.29
11525;BME280;5819;49.648;8.330;2023-03-01T04:50:26;101377.00;;;-0.62;88.96
11525;BME280;5819;49.648;8.330;2023-03-01T04:52:55;101383.69;;;-0.69;89.26
11525;BME280;5819;49.648;8.330;2023-03-01T04:55:25;101380.38;;;-0.65;89.40
11525;BME280;5819;49.648;8.330;2023-03-01T04:57:54;101379.34;;;-0.71;89.24
11525;BME280;5819;49.648;8.330;2023-03-01T05:00:23;101372.59;;;-0.69;90.47
11525;BME280;5819;49.648;8.330;2023-03-01T05:02:52;101373.66;;;-0.58;89.67
11525;BME280;5819;49.648;8.330;2023-03-01T05:05:24;101371.75;;;-0.25;88.29
11525;BME280;5819;49.648;8.330;2023-03-01T05:07:55;101376.78;;;-0.28;87.32
11525;BME280;5819;49.648;8.330;2023-03-01T05:10:24;101380.78;;;-0.42;88.64
11525;BME280;5819;49.648;8.330;2023-03-01T05:12:53;101370.56;;;-0.42;89.12
11525;BME280;5819;49.648;8.330;2023-03-01T05:15:21;101363.72;;;-0.44;88.91
11525;BME280;5819;49.648;8.330;2023-03-01T05:17:52;101361.81;;;-0.08;87.28
11525;BME280;5819;49.648;8.330;2023-03-01T05:20:21;101366.66;;;-0.22;87.00
11525;BME280;5819;49.648;8.330;2023-03-01T05:22:50;101365.63;;;-0.33;87.38
11525;BME280;5819;49.648;8.330;2023-03-01T05:25:20;101352.69;;;0.08;87.40
11525;BME280;5819;49.648;8.330;2023-03-01T05:27:49;101366.72;;;-0.19;86.03
11525;BME280;5819;49.648;8.330;2023-03-01T05:30:18;101361.47;;;-0.26;86.63
11525;BME280;5819;49.648;8.330;2023-03-01T05:32:48;101364.84;;;-0.27;87.18
11525;BME280;5819;49.648;8.330;2023-03-01T05:35:17;101370.88;;;-0.24;87.41
11525;BME280;5819;49.648;8.330;2023-03-01T05:37:47;101371.25;;;-0.04;86.19
11525;BME280;5819;49.648;8.330;2023-03-01T05:40:17;101358.59;;;0.05;85.69
11525;BME280;5819;49.648;8.330;2023-03-01T05:42:48;101365.91;;;-0.18;85.22
11525;BME280;5819;49.648;8.330;2023-03-01T05:45:17;101366.97;;;-0.04;85.54
11525;BME280;5819;49.648;8.330;2023-03-01T05:47:47;101358.47;;;-0.04;84.99
11525;BME280;5819;49.648;8.330;2023-03-01T05:50:17;101362.56;;;-0.14;85.48
11525;BME280;5819;49.648;8.330;2023-03-01T05:52:47;101365.97;;;-0.13;85.91
11525;BME280;5819;49.648;8.330;2023-03-01T05:55:16;101368.66;;;-0.06;85.49
11525;BME280;5819;49.648;8.330;2023-03-01T05:57:44;101366.75;;;-0.17;85.57
11525;BME280;5819;49.648;8.330;2023-03-01T06:00:16;101363.22;;;-0.24;87.23
11525;BME280;5819;49.648;8.330;2023-03-01T06:02:44;101364.84;;;-0.27;87.50
11525;BME280;5819;49.648;8.330;2023-03-01T06:05:14;101361.81;;;-0.07;87.56
11525;BME280;5819;49.648;8.330;2023-03-01T06:07:42;101365.84;;;-0.19;86.82
11525;BME280;5819;49.648;8.330;2023-03-01T06:10:11;101366.94;;;-0.08;87.55
11525;BME280;5819;49.648;8.330;2023-03-01T06:12:41;101363.22;;;-0.25;87.61
11525;BME280;5819;49.648;8.330;2023-03-01T06:15:10;101361.69;;;-0.14;86.88
11525;BME280;5819;49.648;8.330;2023-03-01T06:17:41;101369.22;;;-0.22;86.92
11525;BME280;5819;49.648;8.330;2023-03-01T06:20:11;101364.28;;;-0.13;87.46
11525;BME280;5819;49.648;8.330;2023-03-01T06:22:40;101371.63;;;-0.31;87.32
11525;BME280;5819;49.648;8.330;2023-03-01T06:25:09;101372.66;;;-0.20;87.20
11525;BME280;5819;49.648;8.330;2023-03-01T06:27:37;101366.50;;;-0.32;87.14
11525;BME280;5819;49.648;8.330;2023-03-01T06:30:06;101361.59;;;-0.19;87.77
11525;BME280;5819;49.648;8.330;2023-03-01T06:32:36;101364.84;;;-0.27;88.20
11525;BME280;5819;49.648;8.330;2023-03-01T06:35:06;101362.38;;;-0.23;87.45
11525;BME280;5819;49.648;8.330;2023-03-01T06:37:35;101354.75;;;-0.20;87.46
11525;BME280;5819;49.648;8.330;2023-03-01T06:40:03;101356.50;;;-0.19;88.03
11525;BME280;5819;49.648;8.330;2023-03-01T06:42:35;101354.88;;;-0.14;87.76
11525;BME280;5819;49.648;8.330;2023-03-01T06:45:05;101354.84;;;-0.17;87.86
11525;BME280;5819;49.648;8.330;2023-03-01T06:47:33;101351.59;;;-0.07;86.90
11525;BME280;5819;49.648;8.330;2023-03-01T06:50:02;101347.78;;;0.20;85.73
11525;BME280;5819;49.648;8.330;2023-03-01T06:52:31;101346.22;;;0.32;85.12
11525;BME280;5819;49.648;8.330;2023-03-01T06:54:59;101347.06;;;0.30;85.40
11525;BME280;5819;49.648;8.330;2023-03-01T06:57:28;101349.78;;;0.40;85.44
11525;BME280;5819;49.648;8.330;2023-03-01T06:59:57;101351.59;;;0.47;84.83
11525;BME280;5819;49.648;8.330;2023-03-01T07:02:25;101355.00;;;0.46;84.18
11525;BME280;5819;49.648;8.330;2023-03-01T07:04:53;101345.00;;;0.63;83.72
11525;BME280;5819;49.648;8.330;2023-03-01T07:07:23;101341.28;;;0.44;84.69
11525;BME280;5819;49.648;8.330;2023-03-01T07:09:52;101345.81;;;0.62;83.64
11525;BME280;5819;49.648;8.330;2023-03-01T07:12:22;101345.81;;;0.62;84.55
11525;BME280;5819;49.648;8.330;2023-03-01T07:14:50;101338.91;;;0.55;84.43
11525;BME280;5819;49.648;8.330;2023-03-01T07:17:18;101339.84;;;0.62;84.43
11525;BME280;5819;49.648;8.330;2023-03-01T07:19:46;101339.75;;;0.54;83.64
11525;BME280;5819;49.648;8.330;2023-03-01T07:22:14;101342.25;;;0.51;85.39
11525;BME280;5819;49.648;8.330;2023-03-01T07:24:42;101338.91;;;0.57;85.10
11525;BME280;5819;49.648;8.330;2023-03-01T07:27:12;101338.53;;;0.92;83.54
11525;BME280;5819;49.648;8.330;2023-03-01T07:29:40;101338.50;;;0.89;83.24
11525;BME280;5819;49.648;8.330;2023-03-01T07:32:08;101335.03;;;0.84;81.99
11525;BME280;5819;49.648;8.330;2023-03-01T07:34:37;101334.13;;;0.79;82.51
11525;BME280;5819;49.648;8.330;2023-03-01T07:37:05;101336.53;;;0.67;82.89
11525;BME280;5819;49.648;8.330;2023-03-01T07:39:32;101330.16;;;1.03;83.08
11525;BME280;5819;49.648;8.330;2023-03-01T07:42:00;101330.66;;;0.77;82.55
11525;BME280;5819;49.648;8.330;2023-03-01T07:44:30;101330.69;;;0.79;82.30
11525;BME280;5819;49.648;8.330;2023-03-01T07:46:57;101321.38;;;0.85;82.51
11525;BME280;5819;49.648;8.330;2023-03-01T07:49:26;101329.06;;;0.84;82.34
11525;BME280;5819;49.648;8.330;2023-03-01T07:51:55;101328.94;;;0.75;82.79
11525;BME280;5819;49.648;8.330;2023-03-01T07:54:23;101329.72;;;0.69;83.21
11525;BME280;5819;49.648;8.330;2023-03-01T07:56:53;101330.06;;;0.97;81.61
11525;BME280;5819;49.648;8.330;2023-03-01T16:02:35;100791.88;;;7.90;51.78
11525;BME280;5819;49.648;8.330;2023-03-01T16:05:05;100794.59;;;7.86;51.44
11525;BME280;5819;49.648;8.330;2023-03-01T16:07:33;100801.03;;;7.70;53.04
11525;BME280;5819;49.648;8.330;2023-03-01T16:10:08;100796.47;;;7.79;52.40
11525;BME280;5819;49.648;8.330;2023-03-01T16:12:37;100790.41;;;7.80;52.78
11525;BME280;5819;49.648;8.330;2023-03-01T16:15:13;100786.75;;;7.89;52.34
11525;BME280;5819;49.648;8.330;2023-03-01T16:17:46;100785.25;;;7.79;52.50
11525;BME280;5819;49.648;8.330;2023-03-01T16:20:21;100797.34;;;7.78;53.22
11525;BME280;5819;49.648;8.330;2023-03-01T16:22:55;100795.06;;;7.66;52.81
11525;BME280;5819;49.648;8.330;2023-03-01T16:25:24;100800.41;;;7.59;52.85
11525;BME280;5819;49.648;8.330;2023-03-01T16:27:52;100800.44;;;7.57;53.46
11525;BME280;5819;49.648;8.330;2023-03-01T16:30:22;100802.28;;;7.52;53.48
11525;BME280;5819;49.648;8.330;2023-03-01T16:32:51;100804.88;;;7.50;53.66
11525;BME280;5819;49.648;8.330;2023-03-01T16:35:22;100799.25;;;7.33;54.40
11525;BME280;5819;49.648;8.330;2023-03-01T16:37:50;100809.03;;;7.21;55.68
11525;BME280;5819;49.648;8.330;2023-03-01T16:40:22;100818.78;;;7.08;56.20
11525;BME280;5819;49.648;8.330;2023-03-01T16:42:51;100816.25;;;7.05;55.58
11525;BME280;5819;49.648;8.330;2023-03-01T16:45:19;100810.22;;;7.04;55.11
11525;BME280;5819;49.648;8.330;2023-03-01T16:47:52;100808.44;;;7.08;55.01
11525;BME280;5819;49.648;8.330;2023-03-01T16:50:22;100810.41;;;6.95;55.57
11525;BME280;5819;49.648;8.330;2023-03-01T16:52:50;100810.56;;;6.88;55.78
11525;BME280;5819;49.648;8.330;2023-03-01T16:55:19;100813.94;;;6.91;55.63
11525;BME280;5819;49.648;8.330;2023-03-01T16:57:46;100816.50;;;6.93;55.48
11525;BME280;5819;49.648;8.330;2023-03-01T17:00:16;100821.06;;;6.80;56.97
11525;BME280;5819;49.648;8.330;2023-03-01T17:02:44;100822.09;;;6.72;56.44
11525;BME280;5819;49.648;8.330;2023-03-01T17:05:14;100825.75;;;6.60;57.37
11525;BME280;5819;49.648;8.330;2023-03-01T17:07:42;100823.81;;;6.71;56.13
11525;BME280;5819;49.648;8.330;2023-03-01T17:10:10;100817.59;;;6.81;56.79
11525;BME280;5819;49.648;8.330;2023-03-01T17:12:39;100823.00;;;6.69;57.03
11525;BME280;5819;49.648;8.330;2023-03-01T17:15:08;100831.94;;;6.51;57.89
11525;BME280;5819;49.648;8.330;2023-03-01T17:17:39;100835.72;;;6.34;58.34
11525;BME280;5819;49.648;8.330;2023-03-01T17:20:10;100834.22;;;6.21;59.55
11525;BME280;5819;49.648;8.330;2023-03-01T17:22:41;100842.13;;;6.10;60.18
11525;BME280;5819;49.648;8.330;2023-03-01T17:25:11;100836.75;;;6.22;58.82
11525;BME280;5819;49.648;8.330;2023-03-01T17:27:39;100839.31;;;6.25;58.71
11525;BME280;5819;49.648;8.330;2023-03-01T17:30:11;100840.16;;;6.26;58.99
11525;BME280;5819;49.648;8.330;2023-03-01T17:32:40;100836.16;;;6.08;59.16
11525;BME280;5819;49.648;8.330;2023-03-01T17:35:10;100842.28;;;6.01;60.30
11525;BME280;5819;49.648;8.330;2023-03-01T17:37:40;100840.84;;;5.82;60.79
11525;BME280;5819;49.648;8.330;2023-03-01T17:40:12;100845.34;;;5.66;60.78
11525;BME280;5819;49.648;8.330;2023-03-01T17:42:40;100844.47;;;5.69;60.71
11525;BME280;5819;49.648;8.330;2023-03-01T17:45:10;100841.78;;;5.75;61.74
11525;BME280;5819;49.648;8.330;2023-03-01T17:47:38;100838.19;;;5.86;59.80
11525;BME280;5819;49.648;8.330;2023-03-01T17:50:08;100833.34;;;5.63;60.34
11525;BME280;5819;49.648;8.330;2023-03-01T17:52:36;100828.94;;;5.72;60.77
11525;BME280;5819;49.648;8.330;2023-03-01T17:55:07;100829.59;;;5.87;61.08
11525;BME280;5819;49.648;8.330;2023-03-01T17:57:37;100823.66;;;5.81;60.24
11525;BME280;5819;49.648;8.330;2023-03-01T18:00:09;100837.31;;;5.89;60.83
11525;BME280;5819;49.648;8.330;2023-03-01T18:02:40;100823.88;;;5.65;61.19
11525;BME280;5819;49.648;8.330;2023-03-01T18:05:10;100828.13;;;5.68;61.96
11525;BME280;5819;49.648;8.330;2023-03-01T18:07:38;100838.56;;;5.60;61.47
11525;BME280;5819;49.648;8.330;2023-03-01T18:10:09;100832.69;;;5.51;61.79
11525;BME280;5819;49.648;8.330;2023-03-01T18:12:37;100844.59;;;5.59;61.02
11525;BME280;5819;49.648;8.330;2023-03-01T18:15:07;100838.75;;;5.48;61.52
11525;BME280;5819;49.648;8.330;2023-03-01T18:17:36;100846.81;;;5.23;62.40
11525;BME280;5819;49.648;8.330;2023-03-01T18:20:06;100853.78;;;5.16;63.12
11525;BME280;5819;49.648;8.330;2023-03-01T18:22:34;100859.00;;;5.11;63.74
11525;BME280;5819;49.648;8.330;2023-03-01T18:25:03;100862.56;;;5.00;63.35
11525;BME280;5819;49.648;8.330;2023-03-01T18:27:32;100857.50;;;4.92;63.68
11525;BME280;5819;49.648;8.330;2023-03-01T18:30:02;100861.09;;;4.78;63.99
11525;BME280;5819;49.648;8.330;2023-03-01T18:32:30;100867.91;;;4.82;63.53
11525;BME280;5819;49.648;8.330;2023-03-01T18:34:59;100870.53;;;4.80;63.80
11525;BME280;5819;49.648;8.330;2023-03-01T18:37:26;100872.50;;;4.55;64.41
11525;BME280;5819;49.648;8.330;2023-03-01T18:39:55;100874.31;;;4.44;64.52
11525;BME280;5819;49.648;8.330;2023-03-01T18:42:23;100884.66;;;4.41;64.76
11525;BME280;5819;49.648;8.330;2023-03-01T18:44:52;100885.59;;;4.30;65.32
11525;BME280;5819;49.648;8.330;2023-03-01T18:47:20;100886.41;;;4.35;64.96
11525;BME280;5819;49.648;8.330;2023-03-01T18:49:48;100889.88;;;4.32;65.22
11525;BME280;5819;49.648;8.330;2023-03-01T18:52:16;100886.44;;;4.30;65.35
11525;BME280;5819;49.648;8.330;2023-03-01T18:54:44;100879.66;;;4.23;66.34
11525;BME280;5819;49.648;8.330;2023-03-01T18:57:12;100888.13;;;4.36;65.72
11525;BME280;5819;49.648;8.330;2023-03-01T18:59:43;100876.06;;;4.41;65.97
11525;BME280;5819;49.648;8.330;2023-03-01T19:02:12;100887.28;;;4.35;65.54
11525;BME280;5819;49.648;8.330;2023-03-01T19:04:44;100877.81;;;4.36;65.67
11525;BME280;5819;49.648;8.330;2023-03-01T19:07:13;100888.16;;;4.31;65.50
11525;BME280;5819;49.648;8.330;2023-03-01T19:09:42;100888.19;;;4.27;65.62
11525;BME280;5819;49.648;8.330;2023-03-01T19:12:10;100890.78;;;4.28;66.04
11525;BME280;5819;49.648;8.330;2023-03-01T19:14:39;100889.91;;;4.26;nan
11525;BME280;5819;49.648;8.330;2023-03-01T19:17:08;100888.13;;;4.37;65.96
11525;BME280;5819;49.648;8.330;2023-03-01T19:19:37;100891.53;;;4.38;65.45
11525;BME280;5819;49.648;8.330;2023-03-01T19:22:06;100886.50;;;4.24;66.64
11525;BME280;5819;49.648;8.330;2023-03-01T19:24:34;100895.06;;;4.26;66.27
11525;BME280;5819;49.648;8.330;2023-03-01T19:27:02;100879.50;;;4.41;65.54
11525;BME280;5819;49.648;8.330;2023-03-01T19:29:30;100875.13;;;4.49;65.58
11525;BME280;5819;49.648;8.330;2023-03-01T19:31:58;100886.56;;;4.16;66.48
11525;BME280;5819;49.648;8.330;2023-03-01T19:34:26;100886.63;;;4.07;66.81
11525;BME280;5819;49.648;8.330;2023-03-01T19:36:56;100883.16;;;4.13;67.13
11525;BME280;5819;49.648;8.330;2023-03-01T19:39:26;100880.59;;;4.13;67.03
11525;BME280;5819;49.648;8.330;2023-03-01T19:41:56;100876.97;;;4.35;66.39
11525;BME280;5819;49.648;8.330;2023-03-01T19:44:24;100886.56;;;4.16;67.29
11525;BME280;5819;49.648;8.330;2023-03-01T19:46:56;100878.03;;;4.11;66.74
11525;BME280;5819;49.648;8.330;2023-03-01T19:49:25;100876.31;;;4.12;66.92
11525;BME280;5819;49.648;8.330;2023-03-01T19:51:57;100885.69;;;4.20;66.12
11525;BME280;5819;49.648;8.330;2023-03-01T19:54:25;100886.63;;;4.06;66.20
11525;BME280;5819;49.648;8.330;2023-03-01T19:56:58;100882.25;;;4.20;65.92
11525;BME280;5819;49.648;8.330;2023-03-01T19:59:26;100883.81;;;4.39;65.43
11525;BME280;5819;49.648;8.330;2023-03-01T20:01:54;100885.88;;;3.93;66.76
11525;BME280;5819;49.648;8.330;2023-03-01T20:04:24;100887.69;;;3.81;66.94
11525;BME280;5819;49.648;8.330;2023-03-01T20:06:52;100888.34;;;4.05;66.11
11525;BME280;5819;49.648;8.330;2023-03-01T20:09:25;100888.44;;;3.96;66.69
11525;BME280;5819;49.648;8.330;2023-03-01T20:11:53;100895.41;;;3.79;67.01
11525;BME280;5819;49.648;8.330;2023-03-01T20:14:23;100888.59;;;3.70;67.31
11525;BME280;5819;49.648;8.330;2023-03-01T20:16:54;100896.28;;;3.75;67.02
11525;BME280;5819;49.648;8.330;2023-03-01T20:19:24;100897.00;;;4.00;66.49
11525;BME280;5819;49.648;8.330;2023-03-01T20:21:52;100898.06;;;3.62;67.24
11525;BME280;5819;49.648;8.330;2023-03-01T20:24:20;100893.81;;;3.55;67.75
11525;BME280;5819;49.648;8.330;2023-03-01T20:26:50;100898.13;;;3.56;67.30
11525;BME280;5819;49.648;8.330;2023-03-01T20:29:18;100895.44;;;3.74;66.29
11525;BME280;5819;49.648;8.330;2023-03-01T20:31:47;100896.34;;;3.61;66.86
11525;BME280;5819;49.648;8.330;2023-03-01T20:34:16;100889.50;;;3.62;66.80
11525;BME280;5819;49.648;8.330;2023-03-01T20:36:45;100897.22;;;3.57;67.35
11525;BME280;5819;49.648;8.330;2023-03-01T20:39:14;100887.81;;;3.58;66.85
11525;BME280;5819;49.648;8.330;2023-03-01T20:41:42;100880.00;;;3.70;67.09
11525;BME280;5819;49.648;8.330;2023-03-01T20:44:12;100892.06;;;3.63;67.28
11525;BME280;5819;49.648;8.330;2023-03-01T20:46:41;100889.41;;;3.80;66.21
11525;BME280;5819;49.648;8.330;2023-03-01T20:49:09;100896.44;;;3.52;67.28
11525;BME280;5819;49.648;8.330;2023-03-01T20:51:37;100888.72;;;3.48;67.64
11525;BME280;5819;49.648;8.330;2023-03-01T20:54:06;100894.72;;;3.48;67.40
11525;BME280;5819;49.648;8.330;2023-03-01T20:56:36;100902.50;;;3.35;67.34
11525;BME280;5819;49.648;8.330;2023-03-01T20:59:06;100895.63;;;3.40;67.47
11525;BME280;5819;49.648;8.330;2023-03-01T21:01:38;100903.28;;;3.47;68.12
11525;BME280;5819;49.648;8.330;2023-03-01T21:04:07;100893.09;;;3.30;68.52
11525;BME280;5819;49.648;8.330;2023-03-01T21:06:36;100889.63;;;3.38;68.20
11525;BME280;5819;49.648;8.330;2023-03-01T21:09:04;100887.88;;;3.49;68.41
11525;BME280;5819;49.648;8.330;2023-03-01T21:11:33;100892.16;;;3.42;67.84
11525;BME280;5819;49.648;8.330;2023-03-01T21:14:02;100886.25;;;3.26;67.87
11525;BME280;5819;49.648;8.330;2023-03-01T21:16:31;100900.91;;;3.05;68.68
11525;BME280;5819;49.648;8.330;2023-03-01T21:19:03;100888.03;;;3.11;69.11
11525;BME280;5819;49.648;8.330;2023-03-01T21:21:31;100883.72;;;3.19;68.84